sensor_id;sensor_type;location;lat;lon;timestamp;pressure;altitude;pressure_sealevel;temperature;humidity
22241;BME280;11289;52.524;13.694;2023-05-01T00:00:08;101501.47;;;7.35;61.07
22241;BME280;11289;52.524;13.694;2023-05-01T00:02:35;101516.00;;;7.50;60.98
22241;BME280;11289;52.524;13.694;2023-05-01T00:05:02;101533.09;;;7.58;60.97
22241;BME280;11289;52.524;13.694;2023-05-01T00:07:29;101527.84;;;7.56;60.68
22241;BME280;11289;52.524;13.694;2023-05-01T00:09:56;101524.81;;;7.58;60.60
22241;BME280;11289;52.524;13.694;2023-05-01T00:12:22;101525.09;;;7.56;60.86
22241;BME280;11289;52.524;13.694;2023-05-01T00:14:49;101526.97;;;7.61;60.99
22241;BME280;11289;52.524;13.694;2023-05-01T00:17:15;101524.81;;;7.58;60.75
22241;BME280;11289;52.524;13.694;2023-05-01T00:19:41;101524.50;;;7.59;60.65
22241;BME280;11289;52.524;13.694;2023-05-01T00:22:07;101514.88;;;7.57;60.51
22241;BME280;11289;52.524;13.694;2023-05-01T00:24:36;101501.09;;;7.52;60.22
22241;BME280;11289;52.524;13.694;2023-05-01T00:27:02;101491.72;;;7.47;60.37
22241;BME280;11289;52.524;13.694;2023-05-01T00:29:28;101518.69;;;7.61;60.38
22241;BME280;11289;52.524;13.694;2023-05-01T00:31:57;101527.56;;;7.58;60.40
22241;BME280;11289;52.524;13.694;2023-05-01T00:34:23;101510.19;;;7.52;60.46
22241;BME280;11289;52.524;13.694;2023-05-01T00:36:49;101516.00;;;7.56;60.20
22241;BME280;11289;52.524;13.694;2023-05-01T00:39:16;101519.31;;;7.53;59.91
22241;BME280;11289;52.524;13.694;2023-05-01T00:41:42;101519.31;;;7.53;60.36
22241;BME280;11289;52.524;13.694;2023-05-01T00:44:10;101512.72;;;7.48;60.07
22241;BME280;11289;52.524;13.694;2023-05-01T00:46:37;101509.16;;;7.48;60.32
22241;BME280;11289;52.524;13.694;2023-05-01T00:49:03;101510.25;;;7.47;60.45
22241;BME280;11289;52.524;13.694;2023-05-01T00:51:30;101508.34;;;7.42;60.48
22241;BME280;11289;52.524;13.694;2023-05-01T00:53:59;101500.91;;;7.38;60.38
22241;BME280;11289;52.524;13.694;2023-05-01T00:56:25;101497.91;;;7.34;60.63
22241;BME280;11289;52.524;13.694;2023-05-01T00:58:51;101497.38;;;7.32;60.94
22241;BME280;11289;52.524;13.694;2023-05-01T01:01:22;101500.66;;;7.34;60.48
22241;BME280;11289;52.524;13.694;2023-05-01T01:03:48;101495.44;;;7.27;60.71
22241;BME280;11289;52.524;13.694;2023-05-01T01:06:32;101492.16;;;7.25;60.49
22241;BME280;11289;52.524;13.694;2023-05-01T01:09:16;101498.84;;;7.19;60.88
22241;BME280;11289;52.524;13.694;2023-05-01T01:12:25;101499.41;;;7.16;61.10
22241;BME280;11289;52.524;13.694;2023-05-01T01:15:07;101500.03;;;7.08;61.39
22241;BME280;11289;52.524;13.694;2023-05-01T01:17:49;101497.81;;;7.05;61.68
22241;BME280;11289;52.524;13.694;2023-05-01T01:23:05;101495.66;;;6.96;61.41
22241;BME280;11289;52.524;13.694;2023-05-01T01:34:12;101467.91;;;6.72;62.23
22241;BME280;11289;52.524;13.694;2023-05-01T01:36:50;101464.91;;;6.69;62.45
22241;BME280;11289;52.524;13.694;2023-05-01T01:39:40;101472.31;;;6.73;62.03
22241;BME280;11289;52.524;13.694;2023-05-01T01:42:14;101472.88;;;6.70;62.17
22241;BME280;11289;52.524;13.694;2023-05-01T01:44:49;101466.84;;;6.63;62.19
22241;BME280;11289;52.524;13.694;2023-05-01T01:47:16;101473.19;;;6.63;62.70
22241;BME280;11289;52.524;13.694;2023-05-01T01:49:48;101474.31;;;6.62;62.32
22241;BME280;11289;52.524;13.694;2023-05-01T01:52:15;101461.09;;;6.59;62.37
22241;BME280;11289;52.524;13.694;2023-05-01T01:54:51;101474.03;;;6.59;62.44
22241;BME280;11289;52.524;13.694;2023-05-01T01:57:23;101470.19;;;6.55;62.67
22241;BME280;11289;52.524;13.694;2023-05-01T01:59:50;101465.81;;;6.54;62.12
22241;BME280;11289;52.524;13.694;2023-05-01T02:02:18;101462.47;;;6.52;62.96
22241;BME280;11289;52.524;13.694;2023-05-01T02:04:47;101463.31;;;6.52;62.61
22241;BME280;11289;52.524;13.694;2023-05-01T02:07:14;101451.50;;;6.41;62.97
22241;BME280;11289;52.524;13.694;2023-05-01T02:09:42;101457.00;;;6.47;62.75
22241;BME280;11289;52.524;13.694;2023-05-01T02:12:10;101460.84;;;6.45;62.95
22241;BME280;11289;52.524;13.694;2023-05-01T02:14:37;101454.25;;;6.41;62.61
22241;BME280;11289;52.524;13.694;2023-05-01T02:17:04;101457.84;;;6.42;62.54
22241;BME280;11289;52.524;13.694;2023-05-01T02:19:32;101460.88;;;6.40;62.90
22241;BME280;11289;52.524;13.694;2023-05-01T02:21:58;101448.22;;;6.34;63.20
22241;BME280;11289;52.524;13.694;2023-05-01T02:24:26;101452.63;;;6.30;62.86
22241;BME280;11289;52.524;13.694;2023-05-01T02:26:59;101445.22;;;6.25;63.22
22241;BME280;11289;52.524;13.694;2023-05-01T02:29:28;101449.63;;;6.26;63.27
22241;BME280;11289;52.524;13.694;2023-05-01T02:31:56;101444.41;;;6.20;63.51
22241;BME280;11289;52.524;13.694;2023-05-01T02:34:22;101446.06;;;6.16;63.74
22241;BME280;11289;52.524;13.694;2023-05-01T02:36:48;101444.44;;;6.15;64.13
22241;BME280;11289;52.524;13.694;2023-05-01T02:39:14;101442.81;;;6.08;63.75
22241;BME280;11289;52.524;13.694;2023-05-01T02:41:40;101440.06;;;6.08;64.16
22241;BME280;11289;52.524;13.694;2023-05-01T02:44:08;101440.88;;;6.04;64.17
22241;BME280;11289;52.524;13.694;2023-05-01T02:46:36;101438.38;;;6.02;64.07
22241;BME280;11289;52.524;13.694;2023-05-01T02:49:05;101435.38;;;5.99;64.03
22241;BME280;11289;52.524;13.694;2023-05-01T02:51:32;101432.31;;;5.95;64.05
22241;BME280;11289;52.524;13.694;2023-05-01T02:54:00;101431.78;;;5.93;64.34
22241;BME280;11289;52.524;13.694;2023-05-01T02:56:28;101430.69;;;5.89;64.48
22241;BME280;11289;52.524;13.694;2023-05-01T02:58:54;101417.47;;;5.81;64.82
22241;BME280;11289;52.524;13.694;2023-05-01T03:01:20;101422.69;;;5.82;64.83
22241;BME280;11289;52.524;13.694;2023-05-01T03:03:46;101418.03;;;5.78;64.77
22241;BME280;11289;52.524;13.694;2023-05-01T03:06:12;101407.56;;;5.74;64.91
22241;BME280;11289;52.524;13.694;2023-05-01T03:08:41;101408.13;;;5.77;65.09
22241;BME280;11289;52.524;13.694;2023-05-01T03:11:07;101388.59;;;5.68;65.04
22241;BME280;11289;52.524;13.694;2023-05-01T03:13:34;101389.94;;;5.70;65.14
22241;BME280;11289;52.524;13.694;2023-05-01T03:16:00;101397.63;;;5.73;65.16
22241;BME280;11289;52.524;13.694;2023-05-01T03:18:26;101391.59;;;5.71;65.28
22241;BME280;11289;52.524;13.694;2023-05-01T03:20:53;101397.38;;;5.70;65.49
22241;BME280;11289;52.524;13.694;2023-05-01T03:23:19;101384.44;;;5.65;65.32
22241;BME280;11289;52.524;13.694;2023-05-01T03:25:46;101383.31;;;5.66;65.07
22241;BME280;11289;52.524;13.694;2023-05-01T03:28:12;101377.84;;;5.61;65.30
22241;BME280;11289;52.524;13.694;2023-05-01T03:30:38;101372.88;;;5.58;65.35
22241;BME280;11289;52.524;13.694;2023-05-01T03:33:04;101381.97;;;5.64;65.54
22241;BME280;11289;52.524;13.694;2023-05-01T03:35:30;101370.13;;;5.58;65.63
22241;BME280;11289;52.524;13.694;2023-05-01T03:37:56;101375.91;;;5.56;65.48
22241;BME280;11289;52.524;13.694;2023-05-01T03:40:22;101373.72;;;5.53;65.86
22241;BME280;11289;52.524;13.694;2023-05-01T03:42:48;101380.06;;;5.54;65.60
22241;BME280;11289;52.524;13.694;2023-05-01T03:45:14;101374.25;;;5.55;65.77
22241;BME280;11289;52.524;13.694;2023-05-01T03:47:41;101385.03;;;5.52;65.87
22241;BME280;11289;52.524;13.694;2023-05-01T03:50:07;101380.03;;;5.49;65.78
22241;BME280;11289;52.524;13.694;2023-05-01T03:52:33;101371.25;;;5.47;65.82
22241;BME280;11289;52.524;13.694;2023-05-01T03:55:00;101374.28;;;5.45;65.78
22241;BME280;11289;52.524;13.694;2023-05-01T03:57:26;101377.56;;;5.47;65.94
22241;BME280;11289;52.524;13.694;2023-05-01T03:59:52;101380.06;;;5.44;65.98
22241;BME280;11289;52.524;13.694;2023-05-01T04:02:18;101371.81;;;5.44;66.51
22241;BME280;11289;52.524;13.694;2023-05-01T04:04:45;101380.88;;;5.44;66.18
22241;BME280;11289;52.524;13.694;2023-05-01T04:07:12;101349.50;;;5.30;66.46
22241;BME280;11289;52.524;13.694;2023-05-01T04:09:38;101382.25;;;5.41;66.47
22241;BME280;11289;52.524;13.694;2023-05-01T04:12:04;101377.31;;;5.44;66.65
22241;BME280;11289;52.524;13.694;2023-05-01T04:14:30;101367.13;;;5.39;66.51
22241;BME280;11289;52.524;13.694;2023-05-01T04:16:57;101367.13;;;5.44;66.60
22241;BME280;11289;52.524;13.694;2023-05-01T04:19:23;101367.13;;;5.44;66.71
22241;BME280;11289;52.524;13.694;2023-05-01T04:21:49;101361.91;;;5.48;66.24
22241;BME280;11289;52.524;13.694;2023-05-01T04:24:15;101372.91;;;5.48;66.32
22241;BME280;11289;52.524;13.694;2023-05-01T04:26:41;101353.09;;;5.35;66.42
22241;BME280;11289;52.524;13.694;2023-05-01T04:29:08;101377.84;;;5.51;66.24
22241;BME280;11289;52.524;13.694;2023-05-01T04:31:34;101362.44;;;5.45;66.54
22241;BME280;11289;52.524;13.694;2023-05-01T04:34:00;101365.19;;;5.50;66.32
22241;BME280;11289;52.524;13.694;2023-05-01T04:36:26;101357.72;;;5.50;66.53
22241;BME280;11289;52.524;13.694;2023-05-01T04:38:52;101339.56;;;5.44;65.83
22241;BME280;11289;52.524;13.694;2023-05-01T04:41:18;101372.31;;;5.61;65.93
22241;BME280;11289;52.524;13.694;2023-05-01T04:43:44;101363.50;;;5.64;66.18
22241;BME280;11289;52.524;13.694;2023-05-01T04:46:10;101352.75;;;5.63;65.73
22241;BME280;11289;52.524;13.694;2023-05-01T04:48:36;101355.50;;;5.63;64.76
22241;BME280;11289;52.524;13.694;2023-05-01T04:51:02;101359.09;;;5.68;65.13
22241;BME280;11289;52.524;13.694;2023-05-01T04:53:28;101356.59;;;5.72;65.51
22241;BME280;11289;52.524;13.694;2023-05-01T04:55:54;101356.88;;;5.70;65.06
22241;BME280;11289;52.524;13.694;2023-05-01T04:58:20;101348.88;;;5.69;65.00
22241;BME280;11289;52.524;13.694;2023-05-01T05:00:46;101346.97;;;5.69;65.30
22241;BME280;11289;52.524;13.694;2023-05-01T05:03:12;101346.41;;;5.72;64.88
22241;BME280;11289;52.524;13.694;2023-05-01T05:05:38;101347.75;;;5.75;64.61
22241;BME280;11289;52.524;13.694;2023-05-01T05:08:05;101353.25;;;5.80;64.59
22241;BME280;11289;52.524;13.694;2023-05-01T05:10:31;101354.59;;;5.88;64.40
22241;BME280;11289;52.524;13.694;2023-05-01T05:12:57;101347.47;;;5.87;63.81
22241;BME280;11289;52.524;13.694;2023-05-01T05:15:24;101351.56;;;5.89;63.64
22241;BME280;11289;52.524;13.694;2023-05-01T05:17:50;101341.63;;;5.93;63.90
22241;BME280;11289;52.524;13.694;2023-05-01T05:20:16;101346.88;;;6.00;63.56
22241;BME280;11289;52.524;13.694;2023-05-01T05:22:42;101334.75;;;6.01;63.76
22241;BME280;11289;52.524;13.694;2023-05-01T05:25:08;101336.94;;;6.04;63.42
22241;BME280;11289;52.524;13.694;2023-05-01T05:27:34;101325.91;;;6.04;62.96
22241;BME280;11289;52.524;13.694;2023-05-01T05:30:06;101333.00;;;6.16;63.08
22241;BME280;11289;52.524;13.694;2023-05-01T05:32:32;101326.94;;;6.19;62.96
22241;BME280;11289;52.524;13.694;2023-05-01T05:34:58;101328.28;;;6.26;61.71
22241;BME280;11289;52.524;13.694;2023-05-01T05:37:24;101335.97;;;6.30;61.85
22241;BME280;11289;52.524;13.694;2023-05-01T05:39:51;101329.09;;;6.32;61.50
22241;BME280;11289;52.524;13.694;2023-05-01T05:42:17;101324.66;;;6.31;61.63
22241;BME280;11289;52.524;13.694;2023-05-01T05:44:43;101326.00;;;6.39;61.90
22241;BME280;11289;52.524;13.694;2023-05-01T05:47:09;101325.09;;;6.49;61.85
22241;BME280;11289;52.524;13.694;2023-05-01T05:49:35;101312.38;;;6.58;61.78
22241;BME280;11289;52.524;13.694;2023-05-01T05:52:01;101311.44;;;6.73;61.05
22241;BME280;11289;52.524;13.694;2023-05-01T05:54:27;101313.78;;;6.90;60.39
22241;BME280;11289;52.524;13.694;2023-05-01T05:56:53;101320.19;;;7.14;60.20
22241;BME280;11289;52.524;13.694;2023-05-01T05:59:19;101315.25;;;7.41;60.03
22241;BME280;11289;52.524;13.694;2023-05-01T06:01:45;101314.13;;;7.66;58.15
22241;BME280;11289;52.524;13.694;2023-05-01T06:04:11;101301.25;;;7.80;57.00
22241;BME280;11289;52.524;13.694;2023-05-01T06:06:39;101315.50;;;8.12;57.17
22241;BME280;11289;52.524;13.694;2023-05-01T06:09:05;101308.69;;;8.42;55.00
22241;BME280;11289;52.524;13.694;2023-05-01T06:11:33;101307.59;;;8.62;55.38
22241;BME280;11289;52.524;13.694;2023-05-01T06:13:59;101288.16;;;9.00;55.94
22241;BME280;11289;52.524;13.694;2023-05-01T06:16:27;101303.13;;;9.46;53.81
22241;BME280;11289;52.524;13.694;2023-05-01T06:18:53;101305.69;;;9.70;51.82
22241;BME280;11289;52.524;13.694;2023-05-01T06:21:19;101310.28;;;10.03;51.98
22241;BME280;11289;52.524;13.694;2023-05-01T06:23:45;101304.81;;;10.25;50.83
22241;BME280;11289;52.524;13.694;2023-05-01T06:26:11;101294.59;;;10.49;50.19
22241;BME280;11289;52.524;13.694;2023-05-01T06:28:37;101299.41;;;10.79;50.33
22241;BME280;11289;52.524;13.694;2023-05-01T06:31:03;101299.53;;;10.97;47.50
22241;BME280;11289;52.524;13.694;2023-05-01T06:33:30;101291.06;;;11.02;47.74
22241;BME280;11289;52.524;13.694;2023-05-01T06:35:56;101291.06;;;11.33;48.87
22241;BME280;11289;52.524;13.694;2023-05-01T06:38:25;101295.94;;;11.59;46.37
22241;BME280;11289;52.524;13.694;2023-05-01T06:40:51;101297.78;;;11.73;47.01
22241;BME280;11289;52.524;13.694;2023-05-01T06:43:18;101295.25;;;11.94;46.73
22241;BME280;11289;52.524;13.694;2023-05-01T06:45:44;101298.44;;;12.18;46.08
22241;BME280;11289;52.524;13.694;2023-05-01T06:48:10;101299.41;;;12.40;45.39
22241;BME280;11289;52.524;13.694;2023-05-01T06:50:36;101285.50;;;12.58;45.49
22241;BME280;11289;52.524;13.694;2023-05-01T06:53:02;101282.06;;;12.69;44.49
22241;BME280;11289;52.524;13.694;2023-05-01T06:55:30;101289.06;;;12.84;44.52
22241;BME280;11289;52.524;13.694;2023-05-01T06:57:59;101283.94;;;13.13;44.53
22241;BME280;11289;52.524;13.694;2023-05-01T07:00:25;101283.91;;;13.21;44.02
22241;BME280;11289;52.524;13.694;2023-05-01T07:02:51;101276.00;;;13.32;42.92
22241;BME280;11289;52.524;13.694;2023-05-01T07:05:17;101289.63;;;13.43;41.98
22241;BME280;11289;52.524;13.694;2023-05-01T07:07:43;101283.00;;;13.56;42.44
22241;BME280;11289;52.524;13.694;2023-05-01T07:10:09;101283.19;;;13.81;41.35
22241;BME280;11289;52.524;13.694;2023-05-01T07:12:35;101284.22;;;14.06;42.42
22241;BME280;11289;52.524;13.694;2023-05-01T07:15:01;101282.97;;;14.16;40.24
22241;BME280;11289;52.524;13.694;2023-05-01T07:17:28;101283.81;;;14.37;41.17
22241;BME280;11289;52.524;13.694;2023-05-01T07:19:54;101282.13;;;14.24;40.81
22241;BME280;11289;52.524;13.694;2023-05-01T07:22:20;101284.44;;;14.22;41.05
22241;BME280;11289;52.524;13.694;2023-05-01T07:24:46;101289.91;;;14.39;40.79
22241;BME280;11289;52.524;13.694;2023-05-01T07:27:12;101273.44;;;14.59;40.20
22241;BME280;11289;52.524;13.694;2023-05-01T07:29:38;101252.66;;;14.48;40.55
22241;BME280;11289;52.524;13.694;2023-05-01T07:32:04;101272.19;;;14.90;39.97
22241;BME280;11289;52.524;13.694;2023-05-01T07:34:31;101273.41;;;15.01;39.42
22241;BME280;11289;52.524;13.694;2023-05-01T07:36:57;101273.91;;;15.15;39.92
22241;BME280;11289;52.524;13.694;2023-05-01T07:39:23;101255.28;;;15.32;38.29
22241;BME280;11289;52.524;13.694;2023-05-01T07:41:49;101258.81;;;15.41;38.62
22241;BME280;11289;52.524;13.694;2023-05-01T07:44:15;101254.25;;;15.49;38.43
22241;BME280;11289;52.524;13.694;2023-05-01T07:46:41;101253.22;;;15.66;38.70
22241;BME280;11289;52.524;13.694;2023-05-01T07:49:07;101256.47;;;15.93;38.64
22241;BME280;11289;52.524;13.694;2023-05-01T07:51:34;101252.69;;;16.13;37.99
22241;BME280;11289;52.524;13.694;2023-05-01T07:54:00;101253.13;;;16.28;37.08
22241;BME280;11289;52.524;13.694;2023-05-01T07:56:29;101243.63;;;16.45;36.51
22241;BME280;11289;52.524;13.694;2023-05-01T07:58:56;101235.22;;;16.45;36.70
22241;BME280;11289;52.524;13.694;2023-05-01T08:01:22;101244.72;;;16.40;36.93
22241;BME280;11289;52.524;13.694;2023-05-01T08:03:52;101241.19;;;16.43;36.42
22241;BME280;11289;52.524;13.694;2023-05-01T08:06:18;101229.88;;;16.40;37.07
22241;BME280;11289;52.524;13.694;2023-05-01T08:08:44;101236.75;;;16.42;36.64
22241;BME280;11289;52.524;13.694;2023-05-01T08:11:10;101229.31;;;16.62;36.89
22241;BME280;11289;52.524;13.694;2023-05-01T08:13:36;101217.38;;;16.65;35.48
22241;BME280;11289;52.524;13.694;2023-05-01T08:16:03;101222.56;;;16.79;36.20
22241;BME280;11289;52.524;13.694;2023-05-01T08:18:30;101220.69;;;16.83;34.83
22241;BME280;11289;52.524;13.694;2023-05-01T08:20:56;101206.91;;;16.91;35.71
22241;BME280;11289;52.524;13.694;2023-05-01T08:23:24;101199.72;;;16.93;36.07
22241;BME280;11289;52.524;13.694;2023-05-01T08:25:51;101202.38;;;17.18;35.66
22241;BME280;11289;52.524;13.694;2023-05-01T08:28:18;101204.19;;;17.26;36.00
22241;BME280;11289;52.524;13.694;2023-05-01T08:30:47;101219.81;;;17.59;35.39
22241;BME280;11289;52.524;13.694;2023-05-01T08:33:16;101211.53;;;17.82;33.75
22241;BME280;11289;52.524;13.694;2023-05-01T08:35:42;101208.25;;;17.96;32.50
22241;BME280;11289;52.524;13.694;2023-05-01T08:38:09;101215.50;;;17.97;33.34
22241;BME280;11289;52.524;13.694;2023-05-01T08:40:36;101195.56;;;18.02;32.39
22241;BME280;11289;52.524;13.694;2023-05-01T08:43:03;101209.72;;;18.25;32.87
22241;BME280;11289;52.524;13.694;2023-05-01T08:45:32;101214.75;;;18.36;31.76
22241;BME280;11289;52.524;13.694;2023-05-01T08:48:04;101206.97;;;18.29;32.29
22241;BME280;11289;52.524;13.694;2023-05-01T08:50:32;101192.31;;;18.39;31.80
22241;BME280;11289;52.524;13.694;2023-05-01T08:52:59;101193.34;;;18.51;32.20
22241;BME280;11289;52.524;13.694;2023-05-01T08:55:30;101193.81;;;18.76;31.79
22241;BME280;11289;52.524;13.694;2023-05-01T08:57:57;101176.47;;;18.93;30.21
22241;BME280;11289;52.524;13.694;2023-05-01T09:00:23;101182.69;;;18.83;31.29
22241;BME280;11289;52.524;13.694;2023-05-01T09:02:50;101182.28;;;18.81;30.57
22241;BME280;11289;52.524;13.694;2023-05-01T09:05:18;101183.41;;;18.76;29.54
22241;BME280;11289;52.524;13.694;2023-05-01T09:07:47;101176.06;;;18.91;31.00
22241;BME280;11289;52.524;13.694;2023-05-01T09:10:16;101172.19;;;19.00;30.59
22241;BME280;11289;52.524;13.694;2023-05-01T09:12:46;101175.41;;;19.25;30.45
22241;BME280;11289;52.524;13.694;2023-05-01T09:15:16;101172.38;;;19.37;28.76
22241;BME280;11289;52.524;13.694;2023-05-01T09:17:45;101167.72;;;19.48;29.97
22241;BME280;11289;52.524;13.694;2023-05-01T09:20:17;101157.06;;;19.61;29.37
22241;BME280;11289;52.524;13.694;2023-05-01T09:22:43;101155.34;;;19.80;30.04
22241;BME280;11289;52.524;13.694;2023-05-01T09:25:10;101154.44;;;19.76;29.36
22241;BME280;11289;52.524;13.694;2023-05-01T09:27:36;101144.09;;;19.80;28.87
22241;BME280;11289;52.524;13.694;2023-05-01T09:30:04;101127.88;;;19.46;28.68
22241;BME280;11289;52.524;13.694;2023-05-01T09:32:31;101142.00;;;19.50;29.27
22241;BME280;11289;52.524;13.694;2023-05-01T09:35:30;101139.44;;;19.38;29.04
22241;BME280;11289;52.524;13.694;2023-05-01T09:37:57;101136.44;;;19.54;29.67
22241;BME280;11289;52.524;13.694;2023-05-01T09:40:27;101119.13;;;19.78;28.67
22241;BME280;11289;52.524;13.694;2023-05-01T09:42:53;101124.72;;;20.09;28.25
22241;BME280;11289;52.524;13.694;2023-05-01T09:45:25;101132.13;;;20.24;28.21
22241;BME280;11289;52.524;13.694;2023-05-01T09:47:51;101105.72;;;20.36;28.51
22241;BME280;11289;52.524;13.694;2023-05-01T09:50:32;101099.97;;;20.66;27.84
22241;BME280;11289;52.524;13.694;2023-05-01T09:53:03;101100.81;;;20.67;27.90
22241;BME280;11289;52.524;13.694;2023-05-01T09:55:31;101092.09;;;20.83;27.39
22241;BME280;11289;52.524;13.694;2023-05-01T09:57:57;101094.53;;;20.88;27.85
22241;BME280;11289;52.524;13.694;2023-05-01T10:00:24;101094.66;;;21.02;28.33
22241;BME280;11289;52.524;13.694;2023-05-01T10:02:50;101101.19;;;21.14;28.25
22241;BME280;11289;52.524;13.694;2023-05-01T10:05:17;101085.88;;;21.15;27.18
22241;BME280;11289;52.524;13.694;2023-05-01T10:08:00;101095.13;;;21.12;27.53
22241;BME280;11289;52.524;13.694;2023-05-01T10:10:28;101087.63;;;21.34;28.21
22241;BME280;11289;52.524;13.694;2023-05-01T10:12:54;101075.75;;;21.73;27.35
22241;BME280;11289;52.524;13.694;2023-05-01T10:15:20;101068.56;;;21.90;27.55
22241;BME280;11289;52.524;13.694;2023-05-01T10:17:48;101084.75;;;22.11;27.97
22241;BME280;11289;52.524;13.694;2023-05-01T10:20:16;101082.44;;;22.38;27.52
22241;BME280;11289;52.524;13.694;2023-05-01T10:22:42;101080.03;;;22.48;27.33
22241;BME280;11289;52.524;13.694;2023-05-01T10:25:09;101069.91;;;22.54;26.85
22241;BME280;11289;52.524;13.694;2023-05-01T10:27:40;101076.00;;;22.70;27.01
22241;BME280;11289;52.524;13.694;2023-05-01T10:30:08;101065.50;;;22.60;27.23
22241;BME280;11289;52.524;13.694;2023-05-01T10:32:35;101062.16;;;22.22;26.07
22241;BME280;11289;52.524;13.694;2023-05-01T10:35:14;101062.22;;;22.33;26.01
22241;BME280;11289;52.524;13.694;2023-05-01T10:37:46;101056.50;;;22.22;27.16
22241;BME280;11289;52.524;13.694;2023-05-01T10:45:42;101037.47;;;21.90;27.31
22241;BME280;11289;52.524;13.694;2023-05-01T10:48:08;101030.25;;;22.14;27.06
22241;BME280;11289;52.524;13.694;2023-05-01T10:50:34;101018.56;;;22.23;26.92
22241;BME280;11289;52.524;13.694;2023-05-01T10:55:37;101016.94;;;22.29;26.96
22241;BME280;11289;52.524;13.694;2023-05-01T10:58:03;101021.44;;;22.59;27.05
22241;BME280;11289;52.524;13.694;2023-05-01T11:00:30;101019.41;;;22.74;25.52
22241;BME280;11289;52.524;13.694;2023-05-01T11:08:35;100995.16;;;22.62;26.93
22241;BME280;11289;52.524;13.694;2023-05-01T11:14:07;100991.94;;;22.60;26.58
22241;BME280;11289;52.524;13.694;2023-05-01T11:16:40;100989.50;;;22.84;26.78
22241;BME280;11289;52.524;13.694;2023-05-01T11:19:50;100976.53;;;22.90;26.12
22241;BME280;11289;52.524;13.694;2023-05-01T11:22:15;100977.78;;;22.82;24.55
22241;BME280;11289;52.524;13.694;2023-05-01T11:24:41;100955.56;;;22.55;25.41
22241;BME280;11289;52.524;13.694;2023-05-01T11:27:12;100968.06;;;22.83;25.52
22241;BME280;11289;52.524;13.694;2023-05-01T11:29:38;100956.34;;;22.81;25.28
22241;BME280;11289;52.524;13.694;2023-05-01T11:32:06;100954.75;;;22.51;25.74
22241;BME280;11289;52.524;13.694;2023-05-01T11:34:36;100953.97;;;22.47;25.29
22241;BME280;11289;52.524;13.694;2023-05-01T11:37:02;100943.41;;;22.04;25.50
22241;BME280;11289;52.524;13.694;2023-05-01T11:39:29;100939.75;;;21.82;25.53
22241;BME280;11289;52.524;13.694;2023-05-01T11:42:10;100940.53;;;21.64;25.78
22241;BME280;11289;52.524;13.694;2023-05-01T11:44:36;100931.25;;;21.67;25.66
22241;BME280;11289;52.524;13.694;2023-05-01T11:47:02;100925.59;;;21.71;26.39
22241;BME280;11289;52.524;13.694;2023-05-01T11:49:28;100930.34;;;21.49;26.48
22241;BME280;11289;52.524;13.694;2023-05-01T11:51:57;100923.91;;;21.52;27.21
22241;BME280;11289;52.524;13.694;2023-05-01T11:54:25;100925.25;;;22.16;26.84
22241;BME280;11289;52.524;13.694;2023-05-01T11:56:58;100934.56;;;22.49;25.79
22241;BME280;11289;52.524;13.694;2023-05-01T11:59:25;100921.22;;;22.67;24.74
22241;BME280;11289;52.524;13.694;2023-05-01T12:01:52;100916.31;;;22.78;26.13
22241;BME280;11289;52.524;13.694;2023-05-01T12:04:26;100917.41;;;23.24;26.02
22241;BME280;11289;52.524;13.694;2023-05-01T12:06:52;100907.59;;;23.47;25.64
22241;BME280;11289;52.524;13.694;2023-05-01T12:09:23;100894.38;;;23.86;24.28
22241;BME280;11289;52.524;13.694;2023-05-01T12:11:50;100901.53;;;24.08;23.71
22241;BME280;11289;52.524;13.694;2023-05-01T12:14:17;100898.31;;;24.06;23.27
22241;BME280;11289;52.524;13.694;2023-05-01T12:16:44;100900.72;;;24.08;23.36
22241;BME280;11289;52.524;13.694;2023-05-01T12:19:14;100890.16;;;24.12;24.10
22241;BME280;11289;52.524;13.694;2023-05-01T12:21:41;100896.41;;;24.41;23.81
22241;BME280;11289;52.524;13.694;2023-05-01T12:26:37;100876.38;;;24.56;23.37
22241;BME280;11289;52.524;13.694;2023-05-01T12:29:05;100872.78;;;24.51;22.65
22241;BME280;11289;52.524;13.694;2023-05-01T12:31:31;100880.59;;;23.95;24.25
22241;BME280;11289;52.524;13.694;2023-05-01T12:34:01;100880.41;;;23.60;24.95
22241;BME280;11289;52.524;13.694;2023-05-01T12:36:30;100875.88;;;23.70;25.17
22241;BME280;11289;52.524;13.694;2023-05-01T12:39:02;100870.59;;;23.72;24.50
22241;BME280;11289;52.524;13.694;2023-05-01T12:41:35;100861.25;;;23.75;23.82
22241;BME280;11289;52.524;13.694;2023-05-01T12:44:28;100857.25;;;23.69;23.33
22241;BME280;11289;52.524;13.694;2023-05-01T12:47:02;100850.09;;;23.50;24.44
22241;BME280;11289;52.524;13.694;2023-05-01T12:49:29;100850.94;;;23.43;24.50
22241;BME280;11289;52.524;13.694;2023-05-01T12:51:58;100842.53;;;23.33;24.22
22241;BME280;11289;52.524;13.694;2023-05-01T12:54:28;100844.53;;;23.32;24.40
22241;BME280;11289;52.524;13.694;2023-05-01T12:57:14;100835.31;;;23.21;25.47
22241;BME280;11289;52.524;13.694;2023-05-01T12:59:41;100824.78;;;23.21;25.32
22241;BME280;11289;52.524;13.694;2023-05-01T13:02:10;100830.03;;;23.23;25.42
22241;BME280;11289;52.524;13.694;2023-05-01T13:04:37;100831.53;;;23.45;24.32
22241;BME280;11289;52.524;13.694;2023-05-01T13:07:14;100816.22;;;23.36;23.85
22241;BME280;11289;52.524;13.694;2023-05-01T13:09:55;100825.13;;;23.34;25.14
22241;BME280;11289;52.524;13.694;2023-05-01T13:12:25;100813.50;;;23.14;24.90
22241;BME280;11289;52.524;13.694;2023-05-01T13:14:52;100834.41;;;23.35;25.52
22241;BME280;11289;52.524;13.694;2023-05-01T13:17:26;100827.63;;;23.18;25.09
22241;BME280;11289;52.524;13.694;2023-05-01T13:20:03;100825.91;;;23.38;25.79